Main page
METAR-TAF:

METAR-TAF

Airports :

Athens International Airport

Athens, Greece

latitude: 37-56N, longitude: 023-56E, elevation: 94 m

Current weather observation

The report was made 37 minutes ago, at 05:20 UTC
Wind 13 kt from the North/Northeast
Temperature 28°C
Humidity 48%
Pressure 1013 hPa
Visibility 10 km or more
no clouds below 1500 m and no cumulonimbus

METAR: LGAV 250520Z 03013KT CAVOK 28/16 Q1013 NOSIG

Time: 08:57 (05:57 UTC)

Forecast

The report was made 57 minutes ago, at 05:00 UTC
Forecast valid from 25 at 06 UTC to 26 at 06 UTC
Wind 20 kt from the North
Visibility 10 km or more
Few clouds at a height of 2500 ft
Temporary
from 25 at 06 UTC to 25 at 15 UTC
Wind 20 kt from the North/Northeast with gusts up to 30 kt

TAF: LGAV 250500Z 2506/2606 01020KT 9999 FEW025 TEMPO 2506/2515 03020G30KT

Weather observations and forecasts of more than 4000 airports (METAR and TAF reports).

The available stations are represented by yellow and red dots on the map.

Hover mouse over dot to see the name of the station.

Then click to see weather observations and forecasts.

To change the map : click on the green buttons with a black cross to zoom in, on the green button with a dash to zoom out, or on the green arrows for adjacent maps.


METAR-TAF: